Time;durP1;ratioP1;P1;durP2;ratioP2;P2;SDS_P1;SDS_P2;PMS_P1;PMS_P2;Temp;Humidity;BMP_temperature;BMP_pressure;BME280_temperature;BME280_humidity;BME280_pressure;Samples;Min_cycle;Max_cycle;Signal;HPM_P1;HPM_P2
2021/03/19 00:01:51;;;;;;;6.03;3.05;;;16.00;57.40;;;;;;5074105;28;20037;-65
2021/03/19 00:04:17;;;;;;;5.80;2.90;;;16.00;57.90;;;;;;5074126;28;20365;-65
2021/03/19 00:06:44;;;;;;;5.53;3.05;;;16.00;57.30;;;;;;5074370;28;20028;-65
2021/03/19 00:09:11;;;;;;;6.03;2.90;;;16.00;57.30;;;;;;5074664;28;20021;-65
2021/03/19 00:11:37;;;;;;;6.72;3.30;;;16.00;57.10;;;;;;5074608;28;20024;-65
2021/03/19 00:14:04;;;;;;;6.18;3.28;;;16.00;57.10;;;;;;5073253;28;20021;-66
2021/03/19 00:16:30;;;;;;;6.50;2.97;;;16.00;57.10;;;;;;5074324;28;20025;-65
2021/03/19 00:18:56;;;;;;;6.25;2.58;;;16.00;57.00;;;;;;5074629;28;20035;-65
2021/03/19 00:21:23;;;;;;;5.93;3.03;;;16.00;57.00;;;;;;5073655;28;20021;-66
2021/03/19 00:23:49;;;;;;;5.47;2.92;;;16.00;57.00;;;;;;5074055;28;20479;-65
2021/03/19 00:26:15;;;;;;;5.85;3.05;;;15.90;57.10;;;;;;5070488;28;20035;-65
2021/03/19 00:28:41;;;;;;;7.22;3.30;;;15.90;57.10;;;;;;5074492;28;20020;-65
2021/03/19 00:31:07;;;;;;;6.38;2.75;;;15.90;57.60;;;;;;5074382;28;20052;-65
2021/03/19 00:33:33;;;;;;;6.00;3.00;;;15.90;57.30;;;;;;5074164;28;20052;-65
2021/03/19 00:35:59;;;;;;;6.53;3.35;;;15.90;57.30;;;;;;5073999;28;20021;-66
2021/03/19 00:38:25;;;;;;;6.70;2.97;;;15.80;57.30;;;;;;5073991;28;20166;-66
2021/03/19 00:40:51;;;;;;;5.53;3.10;;;15.80;57.30;;;;;;5074090;28;20027;-66
2021/03/19 00:43:17;;;;;;;5.78;3.13;;;15.80;57.40;;;;;;5074100;28;20070;-66
2021/03/19 00:45:44;;;;;;;5.97;3.10;;;15.80;57.40;;;;;;5074009;28;20023;-65
2021/03/19 00:48:11;;;;;;;6.78;3.13;;;15.70;57.40;;;;;;5073842;28;20096;-66
2021/03/19 00:50:42;;;;;;;5.90;3.20;;;15.70;57.40;;;;;;5074074;28;20024;-65
2021/03/19 00:53:09;;;;;;;5.97;2.92;;;15.70;57.40;;;;;;5073726;28;20112;-65
2021/03/19 00:55:36;;;;;;;6.50;3.30;;;15.70;57.50;;;;;;5073644;28;20031;-65
2021/03/19 00:58:02;;;;;;;6.57;3.20;;;15.70;57.50;;;;;;5073838;28;20517;-65
2021/03/19 01:00:32;;;;;;;5.57;3.08;;;15.70;57.50;;;;;;5073907;28;20025;-66
2021/03/19 01:02:57;;;;;;;5.97;3.22;;;15.70;57.60;;;;;;5072437;28;20036;-65
2021/03/19 01:05:43;;;;;;;8.48;3.25;;;15.60;57.60;;;;;;5072356;28;20040;-65
2021/03/19 01:08:10;;;;;;;5.55;3.10;;;15.60;57.70;;;;;;5073586;28;20032;-65
2021/03/19 01:10:41;;;;;;;6.38;3.42;;;15.60;57.70;;;;;;5073596;28;20483;-65
2021/03/19 01:13:09;;;;;;;6.50;3.70;;;15.60;57.90;;;;;;5073483;28;20484;-65
2021/03/19 01:15:35;;;;;;;5.70;2.95;;;15.50;57.80;;;;;;5072439;28;20044;-65
2021/03/19 01:18:02;;;;;;;6.88;3.40;;;15.50;57.80;;;;;;5071964;28;20051;-65
2021/03/19 01:20:29;;;;;;;5.47;2.92;;;15.50;57.90;;;;;;5073126;28;20471;-65
2021/03/19 01:22:56;;;;;;;5.63;3.13;;;15.40;58.00;;;;;;5073632;28;20032;-65
2021/03/19 01:25:23;;;;;;;6.45;3.47;;;15.40;58.10;;;;;;5073173;28;20479;-65
2021/03/19 01:27:49;;;;;;;7.55;3.40;;;15.40;58.10;;;;;;5071797;28;20020;-65
2021/03/19 01:30:19;;;;;;;5.65;3.25;;;15.40;58.10;;;;;;5073344;28;20020;-65
2021/03/19 01:32:46;;;;;;;7.45;3.13;;;15.40;58.20;;;;;;5073122;28;20038;-65
2021/03/19 01:35:14;;;;;;;6.57;3.60;;;15.40;58.20;;;;;;5072278;28;20104;-65
2021/03/19 01:37:41;;;;;;;6.18;3.40;;;15.40;58.20;;;;;;5071156;28;20391;-65
2021/03/19 01:40:09;;;;;;;6.68;3.40;;;15.30;58.20;;;;;;5073284;28;20039;-65
2021/03/19 01:42:59;;;;;;;7.38;3.80;;;15.40;58.20;;;;;;5073407;28;20067;-65
2021/03/19 01:46:02;;;;;;;5.70;3.25;;;15.40;58.10;;;;;;5045515;28;20471;-66
2021/03/19 01:49:06;;;;;;;6.63;3.88;;;15.30;58.10;;;;;;5053109;28;20102;-65
2021/03/19 01:52:10;;;;;;;6.80;3.63;;;15.30;58.30;;;;;;5051593;28;20033;-65
2021/03/19 01:55:13;;;;;;;6.38;3.65;;;15.30;58.40;;;;;;5066556;28;20020;-65
2021/03/19 01:58:17;;;;;;;6.55;3.50;;;15.30;58.20;;;;;;5064825;28;20114;-66
2021/03/19 02:01:20;;;;;;;5.93;3.38;;;15.20;58.30;;;;;;5062375;28;20078;-64
2021/03/19 02:04:23;;;;;;;7.35;3.65;;;15.30;58.40;;;;;;5072306;28;20480;-66
2021/03/19 02:07:26;;;;;;;6.53;3.67;;;15.20;58.40;;;;;;5071199;28;20025;-65
2021/03/19 02:10:29;;;;;;;6.82;3.60;;;15.20;58.40;;;;;;5072377;28;20033;-66
2021/03/19 02:13:32;;;;;;;6.35;3.58;;;15.20;58.40;;;;;;5072371;28;20029;-66
2021/03/19 02:16:35;;;;;;;8.52;3.70;;;15.10;58.30;;;;;;5072175;28;20020;-66
2021/03/19 02:19:39;;;;;;;8.35;4.05;;;15.10;58.40;;;;;;5071792;28;20025;-66
2021/03/19 02:22:42;;;;;;;7.97;3.58;;;15.10;58.40;;;;;;5071081;28;20037;-66
2021/03/19 02:25:46;;;;;;;7.30;3.80;;;15.10;58.50;;;;;;5070742;28;20021;-66
2021/03/19 02:28:49;;;;;;;7.00;4.10;;;15.10;58.50;;;;;;5070142;28;20033;-66
2021/03/19 02:31:15;;;;;;;7.25;3.58;;;15.10;58.50;;;;;;5072397;28;20035;-65
2021/03/19 02:34:02;;;;;;;7.88;3.70;;;15.00;58.50;;;;;;5072493;28;20100;-65
2021/03/19 02:36:28;;;;;;;7.20;4.00;;;15.00;58.50;;;;;;5070455;28;20021;-66
2021/03/19 02:38:55;;;;;;;5.78;3.33;;;15.00;58.60;;;;;;5072495;28;20028;-66
2021/03/19 02:41:22;;;;;;;7.68;3.95;;;15.00;58.50;;;;;;5072105;28;20056;-66
2021/03/19 02:43:48;;;;;;;8.40;3.67;;;15.00;58.60;;;;;;5072358;28;20046;-66
2021/03/19 02:46:14;;;;;;;8.05;3.80;;;15.00;58.70;;;;;;5071595;28;20104;-66
2021/03/19 02:48:40;;;;;;;6.38;3.78;;;15.00;58.60;;;;;;5071937;28;20052;-66
2021/03/19 02:51:46;;;;;;;7.15;3.60;;;15.00;58.70;;;;;;5072000;28;20024;-66
2021/03/19 02:54:11;;;;;;;5.75;3.17;;;14.90;58.70;;;;;;5071951;28;20020;-66
2021/03/19 02:56:37;;;;;;;6.63;3.53;;;14.90;58.70;;;;;;5071569;28;20020;-66
2021/03/19 02:59:03;;;;;;;7.70;3.95;;;14.90;58.70;;;;;;5070392;28;20035;-66
2021/03/19 03:01:29;;;;;;;6.97;3.58;;;14.90;58.70;;;;;;5071775;28;20102;-66
2021/03/19 03:03:54;;;;;;;6.47;3.70;;;14.90;58.60;;;;;;5071634;28;20032;-66
2021/03/19 03:06:20;;;;;;;9.80;3.97;;;14.90;58.60;;;;;;5071914;28;20144;-66
2021/03/19 03:08:46;;;;;;;6.50;3.72;;;14.90;58.70;;;;;;5071747;28;20028;-66
2021/03/19 03:11:12;;;;;;;7.68;4.00;;;14.80;58.70;;;;;;5070315;28;20027;-65
2021/03/19 03:13:38;;;;;;;6.63;3.60;;;14.90;58.70;;;;;;5071587;28;20029;-64
2021/03/19 03:16:05;;;;;;;6.75;3.58;;;14.80;58.70;;;;;;5071484;28;20110;-65
2021/03/19 03:18:32;;;;;;;6.63;3.95;;;14.80;58.70;;;;;;5071931;28;20025;-64
2021/03/19 03:21:00;;;;;;;8.40;3.60;;;14.80;58.70;;;;;;5071644;28;20023;-65
2021/03/19 03:23:28;;;;;;;7.43;3.78;;;14.80;58.80;;;;;;5071711;28;20033;-64
2021/03/19 03:25:54;;;;;;;6.68;3.50;;;14.80;58.70;;;;;;5073245;28;20025;-65
2021/03/19 03:28:21;;;;;;;6.40;3.25;;;14.80;58.70;;;;;;5074012;28;20102;-65
2021/03/19 03:30:52;;;;;;;6.10;3.42;;;14.70;58.70;;;;;;5073708;28;20036;-65
2021/03/19 03:33:19;;;;;;;6.47;3.80;;;14.70;58.80;;;;;;5074093;28;20067;-64
2021/03/19 03:35:46;;;;;;;5.97;3.72;;;14.80;58.80;;;;;;5073283;28;20036;-65
2021/03/19 03:38:16;;;;;;;5.88;3.30;;;14.70;58.80;;;;;;5075163;28;20476;-66
2021/03/19 03:40:53;;;;;;;6.43;3.33;;;14.70;58.80;;;;;;5075019;28;20028;-64
2021/03/19 03:43:20;;;;;;;6.20;3.30;;;14.70;58.90;;;;;;5074844;28;20542;-65
2021/03/19 03:45:46;;;;;;;6.50;3.40;;;14.70;58.90;;;;;;5074830;28;20029;-65
2021/03/19 03:48:13;;;;;;;6.35;3.05;;;14.70;58.90;;;;;;5075106;28;20156;-64
2021/03/19 03:50:41;;;;;;;6.75;3.38;;;14.70;58.90;;;;;;5073860;28;20192;-65
2021/03/19 03:53:10;;;;;;;6.28;3.38;;;14.70;59.00;;;;;;5074875;28;20027;-64
2021/03/19 03:55:37;;;;;;;6.57;3.67;;;14.60;58.90;;;;;;5074878;28;20032;-64
2021/03/19 03:58:04;;;;;;;5.88;2.83;;;14.60;59.00;;;;;;5074923;28;20032;-65
2021/03/19 04:00:31;;;;;;;6.20;3.25;;;14.60;59.10;;;;;;5075241;28;20025;-64
2021/03/19 04:02:59;;;;;;;7.07;3.55;;;14.60;58.90;;;;;;5074644;28;20044;-65
2021/03/19 04:05:28;;;;;;;7.00;3.13;;;14.60;59.10;;;;;;5075077;28;20029;-64
2021/03/19 04:07:54;;;;;;;6.88;3.28;;;14.60;59.10;;;;;;5074330;28;20028;-65
2021/03/19 04:10:20;;;;;;;6.85;3.42;;;14.60;59.00;;;;;;5074964;28;20021;-64
2021/03/19 04:12:46;;;;;;;6.55;2.97;;;14.60;59.00;;;;;;5074642;28;20024;-65
2021/03/19 04:15:13;;;;;;;5.55;3.00;;;14.60;59.00;;;;;;5074679;28;20040;-64
2021/03/19 04:17:41;;;;;;;5.05;2.75;;;14.50;59.10;;;;;;5074419;28;20418;-64
2021/03/19 04:20:08;;;;;;;5.60;3.03;;;14.50;59.10;;;;;;5074738;28;20055;-64
2021/03/19 04:22:34;;;;;;;6.18;3.25;;;14.50;59.00;;;;;;5074306;28;20468;-64
2021/03/19 04:25:00;;;;;;;6.25;3.00;;;14.50;59.10;;;;;;5074492;28;20031;-64
2021/03/19 04:27:31;;;;;;;6.07;3.25;;;14.50;59.10;;;;;;5074296;28;20375;-65
2021/03/19 04:29:57;;;;;;;5.43;2.97;;;14.40;59.10;;;;;;5074359;28;20027;-64
2021/03/19 04:32:25;;;;;;;4.95;2.58;;;14.50;59.20;;;;;;5074768;28;20082;-64
2021/03/19 04:34:51;;;;;;;5.15;2.80;;;14.40;59.10;;;;;;5074541;28;20585;-65
2021/03/19 04:37:17;;;;;;;6.18;2.95;;;14.50;59.20;;;;;;5073962;28;20033;-65
2021/03/19 04:39:46;;;;;;;4.97;2.70;;;14.40;59.20;;;;;;5074123;28;20073;-64
2021/03/19 04:42:12;;;;;;;5.90;2.67;;;14.40;59.10;;;;;;5074037;28;20063;-65
2021/03/19 04:44:41;;;;;;;4.22;2.30;;;14.40;59.00;;;;;;5072740;28;20049;-65
2021/03/19 04:47:07;;;;;;;5.90;2.80;;;14.40;59.00;;;;;;5072581;28;20016;-65
2021/03/19 04:49:35;;;;;;;6.43;2.90;;;14.40;59.00;;;;;;5074098;28;20021;-64
2021/03/19 04:52:01;;;;;;;5.05;2.58;;;14.40;59.10;;;;;;5074068;28;20020;-64
2021/03/19 04:54:28;;;;;;;5.40;2.50;;;14.40;59.10;;;;;;5072573;28;20028;-65
2021/03/19 04:56:54;;;;;;;4.80;2.50;;;14.40;59.10;;;;;;5073829;28;20056;-65
2021/03/19 04:59:20;;;;;;;5.60;2.47;;;14.40;59.20;;;;;;5074145;28;20078;-65
2021/03/19 05:01:49;;;;;;;5.05;2.50;;;14.30;59.00;;;;;;5072125;28;20044;-64
2021/03/19 05:04:16;;;;;;;5.40;2.42;;;14.30;59.50;;;;;;5074165;28;20133;-64
2021/03/19 05:06:43;;;;;;;9.25;2.90;;;14.30;59.00;;;;;;5073301;28;20024;-65
2021/03/19 05:09:09;;;;;;;13.90;3.00;;;14.40;59.00;;;;;;5072105;28;20021;-64
2021/03/19 05:11:36;;;;;;;16.52;2.88;;;14.30;59.00;;;;;;5065444;28;20283;-63
2021/03/19 05:14:03;;;;;;;14.05;2.80;;;14.40;59.10;;;;;;5071239;28;20024;-64
2021/03/19 05:16:28;;;;;;;15.13;3.00;;;14.30;59.20;;;;;;5072308;28;20048;-64
2021/03/19 05:18:54;;;;;;;10.18;2.55;;;14.30;59.10;;;;;;5072050;28;20487;-64
2021/03/19 05:21:20;;;;;;;11.55;2.70;;;14.30;59.20;;;;;;5070712;28;20028;-69
2021/03/19 05:23:46;;;;;;;11.95;3.20;;;14.30;59.10;;;;;;5071468;28;20031;-64
2021/03/19 05:26:12;;;;;;;15.43;3.50;;;14.40;59.10;;;;;;5071934;28;20024;-64
2021/03/19 05:28:38;;;;;;;147.85;131.93;;;14.30;59.70;;;;;;5066703;28;20104;-69
2021/03/19 05:31:04;;;;;;;45.70;33.97;;;14.40;59.80;;;;;;5062850;28;20036;-69
2021/03/19 05:33:50;;;;;;;36.67;21.65;;;14.40;59.70;;;;;;5073027;28;20017;-65
2021/03/19 05:36:21;;;;;;;37.58;23.92;;;14.50;59.90;;;;;;5064583;28;20036;-68
2021/03/19 05:38:47;;;;;;;40.92;25.80;;;14.60;60.00;;;;;;5071457;28;20488;-66
2021/03/19 05:41:13;;;;;;;39.55;24.60;;;14.70;59.50;;;;;;5071855;28;20028;-68
2021/03/19 05:43:55;;;;;;;29.55;21.35;;;14.70;59.40;;;;;;5073090;28;20025;-68
2021/03/19 05:46:32;;;;;;;29.45;20.00;;;14.80;59.10;;;;;;5072429;28;20099;-67
2021/03/19 05:49:09;;;;;;;29.55;18.08;;;14.80;59.00;;;;;;5068273;28;20116;-67
2021/03/19 05:51:37;;;;;;;23.40;17.23;;;14.80;58.90;;;;;;5072774;28;20082;-67
2021/03/19 05:54:30;;;;;;;23.60;17.20;;;14.80;58.70;;;;;;5073102;28;20036;-69
2021/03/19 05:57:04;;;;;;;24.30;16.52;;;14.90;58.70;;;;;;5057003;28;20164;-69
2021/03/19 05:59:32;;;;;;;24.90;16.10;;;15.00;58.50;;;;;;5080818;28;20063;-70
2021/03/19 06:01:58;;;;;;;22.00;14.32;;;15.00;58.60;;;;;;5075591;28;20102;-67
2021/03/19 06:04:27;;;;;;;20.75;13.00;;;15.00;58.60;;;;;;5072435;28;20029;-67
2021/03/19 06:07:03;;;;;;;19.42;12.70;;;15.00;58.50;;;;;;5072250;28;20016;-67
2021/03/19 06:09:42;;;;;;;19.75;12.45;;;15.10;58.50;;;;;;5072652;28;20044;-67
2021/03/19 06:12:18;;;;;;;14.82;11.57;;;15.10;58.30;;;;;;5071397;28;20028;-67
2021/03/19 06:14:55;;;;;;;17.13;11.77;;;15.20;58.80;;;;;;5072980;28;20093;-67
2021/03/19 06:17:33;;;;;;;18.83;10.35;;;15.20;58.10;;;;;;5087698;28;20028;-67
2021/03/19 06:20:02;;;;;;;17.17;10.60;;;15.30;57.90;;;;;;5065227;28;20472;-65
2021/03/19 06:22:48;;;;;;;19.08;13.40;;;15.30;57.60;;;;;;5070999;28;20039;-66
2021/03/19 06:25:40;;;;;;;22.40;13.13;;;15.40;57.60;;;;;;5071057;28;20046;-66
2021/03/19 06:28:23;;;;;;;19.98;11.45;;;15.40;57.60;;;;;;5066526;28;20033;-66
2021/03/19 06:30:49;;;;;;;22.35;15.75;;;15.50;57.50;;;;;;5072506;28;20017;-66
2021/03/19 06:33:15;;;;;;;23.30;15.98;;;15.60;57.30;;;;;;5072411;28;20033;-67
2021/03/19 06:35:43;;;;;;;21.08;14.10;;;15.80;57.00;;;;;;5071709;28;20047;-66
2021/03/19 06:38:39;;;;;;;16.35;12.25;;;15.90;56.70;;;;;;5071652;28;20032;-67
2021/03/19 06:41:22;;;;;;;16.98;11.90;;;16.00;56.40;;;;;;5052373;28;20496;-68
2021/03/19 06:43:48;;;;;;;18.27;12.60;;;16.20;56.00;;;;;;5064781;28;20486;-67
2021/03/19 06:46:34;;;;;;;23.67;12.30;;;16.40;55.70;;;;;;5072280;28;20467;-68
2021/03/19 06:49:03;;;;;;;15.10;10.70;;;16.40;55.50;;;;;;5066170;28;20037;-67
2021/03/19 06:51:37;;;;;;;15.65;11.20;;;16.50;55.20;;;;;;5068100;28;20476;-67
2021/03/19 06:54:44;;;;;;;15.63;10.00;;;16.50;55.40;;;;;;5070311;28;20116;-66
2021/03/19 06:57:15;;;;;;;13.73;9.23;;;16.50;55.20;;;;;;5068282;28;20499;-67
2021/03/19 06:59:48;;;;;;;13.50;8.93;;;16.60;55.10;;;;;;5071569;28;20074;-66
2021/03/19 07:02:20;;;;;;;14.73;9.63;;;16.60;54.90;;;;;;5075690;28;20433;-66
2021/03/19 07:05:04;;;;;;;14.35;9.30;;;16.70;54.40;;;;;;5074506;28;20024;-67
2021/03/19 07:07:47;;;;;;;14.95;8.50;;;16.80;54.60;;;;;;5074226;28;20029;-67
2021/03/19 07:10:31;;;;;;;14.18;8.27;;;16.80;54.70;;;;;;5074436;28;20028;-67
2021/03/19 07:13:25;;;;;;;19.52;8.02;;;16.80;54.60;;;;;;5073783;28;20031;-67
2021/03/19 07:15:54;;;;;;;14.43;7.28;;;16.90;54.50;;;;;;5072789;28;20118;-67
2021/03/19 07:18:35;;;;;;;14.77;7.25;;;16.90;54.50;;;;;;5075865;28;20383;-67
2021/03/19 07:21:21;;;;;;;11.93;6.60;;;17.00;54.50;;;;;;5074368;28;20063;-67
2021/03/19 07:24:12;;;;;;;12.85;6.88;;;17.00;54.50;;;;;;5074956;28;20024;-66
2021/03/19 07:26:43;;;;;;;20.73;7.00;;;17.10;54.10;;;;;;5074630;28;20048;-67
2021/03/19 07:29:41;;;;;;;13.75;6.20;;;17.10;54.20;;;;;;5074727;28;20051;-68
2021/03/19 07:32:30;;;;;;;12.27;5.65;;;17.10;54.10;;;;;;5072259;28;20414;-69
2021/03/19 07:35:11;;;;;;;10.80;5.97;;;17.10;54.20;;;;;;5072067;28;20103;-67
2021/03/19 07:38:03;;;;;;;9.70;5.50;;;17.10;53.70;;;;;;5075196;28;20028;-67
2021/03/19 07:40:45;;;;;;;11.43;5.63;;;17.20;53.50;;;;;;5074841;28;20105;-69
2021/03/19 07:43:22;;;;;;;11.88;6.07;;;17.30;53.20;;;;;;5072443;28;20078;-67
2021/03/19 07:46:12;;;;;;;13.20;6.30;;;17.40;53.30;;;;;;5074638;28;20021;-67
2021/03/19 07:49:05;;;;;;;12.15;5.05;;;17.40;53.30;;;;;;5073831;28;20017;-67
2021/03/19 07:51:47;;;;;;;11.38;5.20;;;17.40;53.20;;;;;;5074046;28;20024;-67
2021/03/19 07:54:15;;;;;;;10.35;5.40;;;17.40;53.10;;;;;;5075036;28;20031;-67
2021/03/19 07:56:49;;;;;;;11.85;5.35;;;17.50;53.10;;;;;;5073604;28;20115;-67
2021/03/19 07:59:25;;;;;;;11.15;5.22;;;17.50;52.70;;;;;;5075090;28;20048;-66
2021/03/19 08:02:12;;;;;;;10.70;4.63;;;17.50;52.50;;;;;;5073581;28;20087;-67
2021/03/19 08:04:42;;;;;;;9.23;4.55;;;17.60;52.60;;;;;;5074874;28;20021;-66
2021/03/19 08:07:40;;;;;;;9.93;4.88;;;17.60;52.20;;;;;;5074771;28;20384;-67
2021/03/19 08:10:17;;;;;;;8.63;4.78;;;17.70;52.00;;;;;;5054976;28;20044;-67
2021/03/19 08:12:49;;;;;;;9.30;4.30;;;17.70;51.60;;;;;;5072958;28;20025;-67
2021/03/19 08:15:21;;;;;;;7.45;4.20;;;17.80;51.30;;;;;;5073317;28;20074;-67
2021/03/19 08:18:10;;;;;;;10.02;4.82;;;17.80;51.00;;;;;;5073488;28;20063;-67
2021/03/19 08:21:07;;;;;;;8.10;4.27;;;17.80;51.30;;;;;;5074508;28;20383;-67
2021/03/19 08:24:02;;;;;;;6.93;4.05;;;17.90;50.80;;;;;;5054960;28;20048;-67
2021/03/19 08:26:41;;;;;;;9.65;3.88;;;17.90;50.40;;;;;;5074580;28;20028;-68
2021/03/19 08:29:22;;;;;;;6.03;3.40;;;17.90;50.40;;;;;;5074375;28;20056;-68
2021/03/19 08:32:15;;;;;;;8.18;3.90;;;18.00;50.20;;;;;;5074285;28;20012;-67
2021/03/19 08:35:10;;;;;;;6.45;3.30;;;18.00;50.10;;;;;;5074439;28;20533;-67
2021/03/19 08:37:50;;;;;;;6.57;3.40;;;18.00;50.10;;;;;;5071942;28;20036;-67
2021/03/19 08:40:34;;;;;;;7.77;3.27;;;18.00;50.10;;;;;;5074335;28;20076;-68
2021/03/19 08:43:03;;;;;;;9.77;3.22;;;18.00;49.90;;;;;;5074281;28;20275;-67
2021/03/19 08:45:31;;;;;;;6.50;3.15;;;18.10;49.80;;;;;;5074035;28;20048;-68
2021/03/19 08:47:59;;;;;;;6.18;2.90;;;18.10;49.80;;;;;;5074239;28;20100;-68
2021/03/19 08:50:30;;;;;;;7.78;3.08;;;18.00;49.90;;;;;;5074449;28;20475;-68
2021/03/19 08:53:14;;;;;;;6.47;3.30;;;18.10;49.70;;;;;;5074129;28;20028;-68
2021/03/19 08:55:50;;;;;;;4.93;2.65;;;18.10;49.40;;;;;;5072579;28;20028;-67
2021/03/19 08:58:27;;;;;;;5.05;2.60;;;18.10;49.30;;;;;;5073785;28;20427;-67
2021/03/19 09:00:59;;;;;;;4.88;2.80;;;18.20;49.30;;;;;;5072645;28;20024;-68
2021/03/19 09:03:37;;;;;;;;;;;18.20;49.40;;;;;;5074074;28;20032;-68
2021/03/19 09:06:05;;;;;;;5.32;2.75;;;18.20;49.00;;;;;;5073563;28;19915;-68
2021/03/19 09:08:43;;;;;;;4.80;2.80;;;18.30;48.80;;;;;;5073807;28;20024;-68
2021/03/19 09:11:13;;;;;;;6.30;3.00;;;18.30;49.10;;;;;;5072265;28;20022;-68
2021/03/19 09:14:04;;;;;;;5.60;2.65;;;18.30;49.00;;;;;;5073770;28;20027;-67
2021/03/19 09:16:51;;;;;;;4.90;2.40;;;18.30;49.00;;;;;;5073247;28;20414;-68
2021/03/19 09:19:32;;;;;;;5.15;2.60;;;18.40;48.70;;;;;;5073583;28;20044;-67
2021/03/19 09:22:37;;;;;;;4.97;2.50;;;18.40;48.80;;;;;;5073158;28;20025;-68
2021/03/19 09:25:09;;;;;;;4.60;2.25;;;18.40;48.70;;;;;;5052626;28;20040;-68
2021/03/19 09:27:38;;;;;;;;;;;18.50;48.60;;;;;;5073674;28;20018;-68
2021/03/19 09:30:35;;;;;;;4.50;2.10;;;18.50;48.20;;;;;;5071949;28;19951;-68
2021/03/19 09:33:02;;;;;;;4.53;2.35;;;18.60;48.20;;;;;;5069723;28;20047;-68
2021/03/19 09:35:41;;;;;;;4.90;2.40;;;18.60;48.20;;;;;;5073467;28;20486;-68
2021/03/19 09:38:26;;;;;;;4.65;2.22;;;18.60;48.00;;;;;;5073251;28;20060;-67
2021/03/19 09:41:00;;;;;;;6.05;2.30;;;18.60;48.00;;;;;;5072966;28;20032;-68
2021/03/19 09:43:39;;;;;;;5.50;2.00;;;18.70;47.80;;;;;;5073429;28;20432;-67
2021/03/19 09:46:27;;;;;;;4.65;2.10;;;18.70;47.80;;;;;;5071729;28;20028;-67
2021/03/19 09:48:57;;;;;;;3.47;1.75;;;18.80;47.60;;;;;;5073410;28;20033;-68
2021/03/19 09:51:41;;;;;;;3.72;2.05;;;18.80;47.50;;;;;;5073088;28;20428;-67
2021/03/19 09:54:29;;;;;;;4.10;1.98;;;18.80;47.50;;;;;;5071732;28;20378;-67
2021/03/19 09:57:00;;;;;;;3.42;1.90;;;18.80;47.30;;;;;;5072887;28;20016;-68
2021/03/19 09:59:29;;;;;;;3.47;1.83;;;18.90;47.10;;;;;;5071996;28;20024;-67
2021/03/19 10:01:56;;;;;;;3.22;1.88;;;18.90;47.10;;;;;;5070653;28;20124;-68
2021/03/19 10:04:37;;;;;;;3.72;1.90;;;18.90;47.00;;;;;;5072512;28;20013;-67
2021/03/19 10:07:17;;;;;;;3.35;1.70;;;18.90;47.00;;;;;;5071763;28;20472;-67
2021/03/19 10:10:01;;;;;;;3.13;1.63;;;19.00;46.90;;;;;;5072629;28;20108;-68
2021/03/19 10:12:35;;;;;;;3.03;1.63;;;19.00;46.60;;;;;;5072809;28;20024;-68
2021/03/19 10:15:25;;;;;;;3.53;1.80;;;19.10;46.50;;;;;;5072753;28;20039;-68
2021/03/19 10:17:56;;;;;;;3.53;1.80;;;18.90;46.40;;;;;;5072386;28;20025;-67
2021/03/19 10:20:23;;;;;;;2.80;1.50;;;18.90;46.60;;;;;;5073130;28;20364;-68
2021/03/19 10:23:09;;;;;;;3.22;1.50;;;18.90;46.70;;;;;;5072412;28;20116;-68
2021/03/19 10:25:37;;;;;;;3.00;1.58;;;18.90;46.60;;;;;;5072408;28;20022;-68
2021/03/19 10:28:20;;;;;;;3.47;1.55;;;18.80;46.70;;;;;;5072717;28;20036;-68
2021/03/19 10:31:12;;;;;;;2.63;1.50;;;18.90;46.70;;;;;;5071193;28;20020;-68
2021/03/19 10:33:43;;;;;;;2.13;1.27;;;19.00;46.20;;;;;;5072656;28;20025;-68
2021/03/19 10:36:13;;;;;;;2.42;1.30;;;19.10;46.10;;;;;;5075107;28;20028;-67
2021/03/19 10:38:51;;;;;;;4.10;1.30;;;19.00;46.00;;;;;;5076666;28;20468;-68
2021/03/19 10:41:29;;;;;;;2.63;1.30;;;19.10;46.30;;;;;;5076348;28;20075;-67
2021/03/19 10:44:03;;;;;;;2.85;1.45;;;19.00;46.10;;;;;;5075048;28;20025;-68
2021/03/19 10:47:23;;;;;;;2.67;1.40;;;18.90;46.30;;;;;;5076399;28;20032;-67
2021/03/19 10:49:57;;;;;;;2.47;1.20;;;18.80;46.50;;;;;;5051972;28;20033;-68
2021/03/19 10:52:26;;;;;;;2.15;1.20;;;18.80;46.70;;;;;;5076432;28;20028;-68
2021/03/19 10:54:54;;;;;;;2.40;1.30;;;18.80;46.50;;;;;;5074808;28;20321;-68
2021/03/19 10:57:39;;;;;;;2.35;1.35;;;18.70;46.60;;;;;;5075914;28;20028;-68
2021/03/19 11:00:31;;;;;;;2.65;1.30;;;18.70;46.90;;;;;;5076212;28;20020;-68
2021/03/19 11:03:00;;;;;;;2.28;1.20;;;18.70;47.20;;;;;;5074462;28;20040;-68
2021/03/19 11:05:26;;;;;;;1.92;1.08;;;18.80;46.80;;;;;;5075805;28;20025;-68
2021/03/19 11:07:51;;;;;;;3.28;1.35;;;18.90;46.60;;;;;;5076358;28;20044;-68
2021/03/19 11:10:20;;;;;;;2.20;1.30;;;18.90;46.50;;;;;;5074468;28;20028;-68
2021/03/19 11:13:16;;;;;;;2.17;1.20;;;18.90;46.50;;;;;;5076551;28;20414;-68
2021/03/19 11:15:44;;;;;;;1.77;1.08;;;18.80;46.80;;;;;;5075623;28;20025;-68
2021/03/19 11:18:38;;;;;;;2.42;1.10;;;18.70;46.80;;;;;;5075902;28;20060;-67
2021/03/19 11:21:07;;;;;;;1.83;0.95;;;18.60;47.30;;;;;;5075530;28;20028;-67
2021/03/19 11:23:37;;;;;;;2.38;1.02;;;18.50;47.70;;;;;;5075712;28;20078;-67
2021/03/19 11:26:17;;;;;;;2.45;1.00;;;18.40;47.80;;;;;;5075696;28;20051;-67
2021/03/19 11:28:43;;;;;;;2.10;1.10;;;18.40;47.90;;;;;;5074179;28;20020;-68
2021/03/19 11:31:27;;;;;;;4.05;1.20;;;18.40;47.80;;;;;;5075501;28;20491;-67
2021/03/19 11:34:05;;;;;;;2.40;0.95;;;18.40;48.00;;;;;;5075455;28;20103;-67
2021/03/19 11:36:53;;;;;;;3.25;1.10;;;18.40;47.80;;;;;;5075179;28;20537;-68
2021/03/19 11:39:52;;;;;;;2.78;1.10;;;18.30;47.50;;;;;;5075163;28;20040;-68
2021/03/19 11:42:29;;;;;;;1.58;0.90;;;18.40;47.50;;;;;;5071412;28;20033;-67
2021/03/19 11:45:01;;;;;;;3.05;1.00;;;18.40;47.60;;;;;;5075437;28;20099;-68
2021/03/19 11:47:36;;;;;;;3.28;1.00;;;18.40;47.40;;;;;;5074255;28;20027;-68
2021/03/19 11:50:20;;;;;;;4.28;1.10;;;18.50;47.20;;;;;;5075197;28;20021;-67
2021/03/19 11:52:47;;;;;;;4.45;1.05;;;18.70;46.50;;;;;;5073726;28;20109;-68
2021/03/19 11:55:19;;;;;;;2.15;1.10;;;18.80;46.40;;;;;;5074925;28;20027;-67
2021/03/19 11:57:44;;;;;;;2.88;1.10;;;18.90;46.00;;;;;;5074983;28;20021;-68
2021/03/19 12:00:15;;;;;;;2.25;1.00;;;19.00;46.00;;;;;;5075092;28;20498;-68
2021/03/19 12:02:43;;;;;;;2.67;1.00;;;19.00;45.80;;;;;;5074230;28;20037;-67
2021/03/19 12:05:11;;;;;;;3.70;1.13;;;19.00;45.80;;;;;;5074958;28;20456;-67
2021/03/19 12:07:37;;;;;;;2.67;1.00;;;18.70;46.60;;;;;;5073934;28;20100;-67
2021/03/19 12:10:08;;;;;;;7.97;1.10;;;18.80;45.90;;;;;;5069649;28;20032;-66
2021/03/19 12:12:34;;;;;;;3.83;1.02;;;18.90;45.10;;;;;;5074281;28;20048;-65
2021/03/19 12:15:00;;;;;;;2.95;1.05;;;18.90;45.10;;;;;;5073358;28;20029;-66
2021/03/19 12:17:26;;;;;;;4.43;0.98;;;18.70;45.40;;;;;;5074142;28;20028;-66
2021/03/19 12:19:52;;;;;;;3.38;1.00;;;18.50;45.30;;;;;;5071723;28;20024;-65
2021/03/19 12:22:20;;;;;;;6.55;1.10;;;18.50;45.60;;;;;;5073477;28;20102;-65
2021/03/19 12:24:45;;;;;;;3.40;1.00;;;18.40;46.10;;;;;;5073167;28;20021;-65
2021/03/19 12:27:13;;;;;;;1.95;0.90;;;18.30;46.20;;;;;;5074369;28;20487;-65
2021/03/19 12:29:38;;;;;;;2.97;1.10;;;18.30;46.20;;;;;;5074926;28;20031;-65
2021/03/19 12:32:04;;;;;;;2.10;0.90;;;18.30;46.10;;;;;;5073628;28;20028;-65
2021/03/19 12:34:30;;;;;;;2.95;1.10;;;18.30;45.90;;;;;;5073093;28;20029;-65
2021/03/19 12:36:55;;;;;;;4.05;0.90;;;18.30;46.00;;;;;;5074176;28;20040;-65
2021/03/19 12:39:22;;;;;;;1.92;0.80;;;18.20;46.00;;;;;;5072841;28;20024;-66
2021/03/19 12:41:48;;;;;;;2.85;0.95;;;18.20;46.00;;;;;;5074533;28;20021;-65
2021/03/19 12:44:15;;;;;;;4.05;1.10;;;18.10;46.80;;;;;;5074359;28;20364;-66
2021/03/19 12:46:41;;;;;;;2.10;0.88;;;18.10;46.20;;;;;;5073928;28;20475;-65
2021/03/19 12:49:07;;;;;;;4.53;1.00;;;17.90;46.70;;;;;;5068830;28;20032;-67
2021/03/19 12:51:33;;;;;;;2.85;0.90;;;17.80;46.80;;;;;;5072335;28;20016;-66
2021/03/19 12:54:00;;;;;;;1.65;0.70;;;17.80;47.40;;;;;;5072508;28;20019;-65
2021/03/19 12:56:26;;;;;;;2.60;0.70;;;17.70;47.40;;;;;;5073750;28;20027;-67
2021/03/19 12:58:52;;;;;;;3.47;0.93;;;17.60;47.40;;;;;;5072180;28;20021;-65
2021/03/19 13:01:20;;;;;;;9.18;1.17;;;17.60;47.70;;;;;;5072125;28;20048;-65
2021/03/19 13:03:47;;;;;;;5.63;1.17;;;17.50;47.90;;;;;;5073677;28;20040;-65
2021/03/19 13:06:14;;;;;;;4.25;0.75;;;17.50;48.00;;;;;;5073175;28;20154;-63
2021/03/19 13:08:40;;;;;;;3.88;0.93;;;17.40;48.20;;;;;;5073606;28;20024;-64
2021/03/19 13:11:07;;;;;;;14.80;1.65;;;17.40;48.60;;;;;;5073553;28;20510;-66
2021/03/19 13:13:33;;;;;;;6.55;1.25;;;17.30;48.10;;;;;;5073179;28;20383;-65
2021/03/19 13:15:58;;;;;;;3.30;0.82;;;17.30;48.40;;;;;;5073160;28;20120;-65
2021/03/19 13:18:24;;;;;;;4.25;0.82;;;17.30;48.50;;;;;;5072104;28;20028;-65
2021/03/19 13:20:49;;;;;;;2.30;0.70;;;17.30;48.70;;;;;;5073869;28;20115;-65